createdAt,value
2018-08-20T00:02:00.679Z,14.50
2018-08-20T00:04:35.097Z,14.53
2018-08-20T00:07:04.100Z,15.00
2018-08-20T00:09:38.596Z,13.43
2018-08-20T00:12:08.679Z,14.23
2018-08-20T00:14:37.738Z,14.33
2018-08-20T00:17:06.681Z,15.73
2018-08-20T00:19:35.571Z,15.43
2018-08-20T00:22:04.507Z,15.13
2018-08-20T00:24:33.341Z,15.57
2018-08-20T00:27:03.331Z,15.27
2018-08-20T00:29:32.817Z,14.20
2018-08-20T00:32:01.600Z,14.97
2018-08-20T00:34:30.433Z,13.93
2018-08-20T00:36:59.332Z,14.50
2018-08-20T00:39:28.104Z,16.07
2018-08-20T00:41:57.009Z,15.20
2018-08-20T00:44:25.937Z,15.80
2018-08-20T00:46:56.028Z,14.47
2018-08-20T00:49:24.881Z,15.33
2018-08-20T00:51:54.789Z,14.60
2018-08-20T00:54:23.661Z,15.00
2018-08-20T00:56:52.504Z,15.33
2018-08-20T00:59:21.343Z,14.80
2018-08-20T01:01:50.279Z,15.67
2018-08-20T01:04:19.140Z,14.77
2018-08-20T01:06:47.989Z,13.60
2018-08-20T01:09:16.912Z,15.03
2018-08-20T01:11:45.722Z,16.23
2018-08-20T01:14:14.721Z,14.27
2018-08-20T01:16:43.610Z,13.83
2018-08-20T01:19:12.402Z,15.70
2018-08-20T01:21:41.349Z,14.90
2018-08-20T01:24:10.153Z,15.47
2018-08-20T01:26:38.948Z,14.70
2018-08-20T01:29:08.031Z,14.50
2018-08-20T01:31:36.852Z,14.53
2018-08-20T01:34:12.025Z,15.37
2018-08-20T01:36:41.067Z,14.13
2018-08-20T01:39:09.956Z,14.77
2018-08-20T01:41:38.826Z,15.47
2018-08-20T01:44:07.876Z,14.97
2018-08-20T01:46:36.787Z,14.37
2018-08-20T01:49:05.693Z,14.90
2018-08-20T01:51:34.557Z,14.73
2018-08-20T01:54:03.414Z,16.20
2018-08-20T01:56:32.305Z,15.73
2018-08-20T01:59:01.129Z,14.83
2018-08-20T02:01:29.940Z,15.73
2018-08-20T02:03:58.896Z,14.97
2018-08-20T02:06:27.699Z,16.23
2018-08-20T02:08:56.505Z,15.00
2018-08-20T02:11:25.381Z,15.53
2018-08-20T02:13:54.376Z,15.60
2018-08-20T02:16:23.177Z,16.53
2018-08-20T02:18:52.066Z,15.50
2018-08-20T02:21:20.969Z,16.33
2018-08-20T02:23:49.806Z,16.80
2018-08-20T02:26:18.607Z,15.67
2018-08-20T02:28:47.456Z,15.80
2018-08-20T02:31:16.285Z,17.10
2018-08-20T02:33:46.102Z,16.50
2018-08-20T02:36:14.993Z,17.03
2018-08-20T02:38:43.859Z,16.50
2018-08-20T02:41:12.718Z,16.27
2018-08-20T02:43:41.626Z,16.23
2018-08-20T02:46:10.638Z,17.20
2018-08-20T02:48:39.560Z,17.50
2018-08-20T02:51:08.491Z,17.67
2018-08-20T02:53:37.338Z,16.37
2018-08-20T02:56:06.234Z,17.33
2018-08-20T02:58:35.151Z,16.70
2018-08-20T03:01:03.965Z,16.40
2018-08-20T03:03:32.952Z,16.63
2018-08-20T03:06:01.869Z,16.47
2018-08-20T03:08:30.710Z,16.50
2018-08-20T03:10:59.535Z,16.03
2018-08-20T03:13:28.436Z,16.97
2018-08-20T03:15:57.308Z,15.63
2018-08-20T03:18:26.192Z,16.87
2018-08-20T03:20:55.133Z,16.70
2018-08-20T03:23:24.005Z,16.60
2018-08-20T03:25:52.801Z,16.40
2018-08-20T03:28:22.060Z,17.80
2018-08-20T03:30:50.955Z,16.80
2018-08-20T03:33:19.861Z,15.83
2018-08-20T03:35:50.030Z,16.50
2018-08-20T03:38:18.899Z,13.90
2018-08-20T03:40:48.697Z,16.10
2018-08-20T03:43:17.620Z,16.40
2018-08-20T03:45:46.440Z,15.57
2018-08-20T03:48:15.274Z,15.70
2018-08-20T03:50:44.148Z,16.83
2018-08-20T03:53:13.174Z,15.37
2018-08-20T03:55:41.993Z,14.33
2018-08-20T03:58:10.828Z,14.77
2018-08-20T04:00:39.845Z,15.93
2018-08-20T04:03:08.864Z,15.57
2018-08-20T04:05:37.709Z,15.47
2018-08-20T04:08:08.005Z,15.37
2018-08-20T04:10:36.828Z,15.20
2018-08-20T04:13:05.697Z,14.03
2018-08-20T04:15:34.567Z,14.73
2018-08-20T04:18:03.481Z,14.33
2018-08-20T04:20:32.294Z,14.87
2018-08-20T04:23:01.189Z,13.60
2018-08-20T04:25:30.386Z,12.93
2018-08-20T04:27:59.277Z,12.87
2018-08-20T04:30:28.121Z,13.13
2018-08-20T04:32:56.980Z,13.03
2018-08-20T04:35:25.972Z,12.33
2018-08-20T04:37:55.418Z,11.20
2018-08-20T04:40:24.329Z,10.73
2018-08-20T04:42:53.209Z,10.40
2018-08-20T04:45:22.084Z,11.73
2018-08-20T04:47:50.860Z,11.70
2018-08-20T04:50:19.873Z,10.57
2018-08-20T04:52:48.570Z,10.40
2018-08-20T04:55:17.422Z,9.70
2018-08-20T04:57:46.275Z,9.20
2018-08-20T05:00:15.139Z,9.83
2018-08-20T05:02:44.012Z,8.80
2018-08-20T05:05:12.829Z,9.37
2018-08-20T05:07:41.642Z,8.60
2018-08-20T05:10:10.667Z,8.53
2018-08-20T05:12:39.407Z,7.03
2018-08-20T05:15:08.729Z,6.57
2018-08-20T05:17:38.841Z,6.43
2018-08-20T05:20:08.526Z,6.47
2018-08-20T05:22:37.317Z,6.57
2018-08-20T05:25:06.365Z,6.10
2018-08-20T05:27:35.278Z,6.47
2018-08-20T05:30:04.220Z,6.47
2018-08-20T05:32:33.016Z,6.40
2018-08-20T05:35:01.844Z,5.90
2018-08-20T05:37:30.696Z,5.70
2018-08-20T05:39:59.542Z,6.40
2018-08-20T05:42:29.487Z,6.37
2018-08-20T05:44:58.329Z,5.50
2018-08-20T05:47:28.134Z,5.40
2018-08-20T05:49:58.731Z,5.60
2018-08-20T05:52:28.496Z,5.20
2018-08-20T05:54:59.655Z,5.43
2018-08-20T05:57:30.319Z,5.40
2018-08-20T06:00:01.467Z,5.30
2018-08-20T06:02:37.420Z,5.30
2018-08-20T06:05:09.088Z,5.87
2018-08-20T06:07:41.692Z,5.33
2018-08-20T06:10:11.571Z,4.90
2018-08-20T06:12:43.874Z,5.70
2018-08-20T06:15:15.831Z,5.03
2018-08-20T06:17:48.835Z,5.30
2018-08-20T06:20:20.163Z,5.17
2018-08-20T06:22:53.073Z,5.20
2018-08-20T06:25:22.413Z,4.43
2018-08-20T06:27:53.570Z,5.00
2018-08-20T06:30:26.402Z,4.70
2018-08-20T06:32:57.273Z,4.00
2018-08-20T06:35:30.324Z,4.03
2018-08-20T06:38:01.925Z,4.30
2018-08-20T06:40:35.855Z,4.53
2018-08-20T06:43:08.935Z,4.43
2018-08-20T06:45:40.197Z,5.00
2018-08-20T06:48:11.835Z,4.70
2018-08-20T06:50:41.930Z,4.80
2018-08-20T06:53:12.443Z,4.83
2018-08-20T06:55:43.804Z,5.03
2018-08-20T06:58:13.050Z,4.67
2018-08-20T07:00:42.321Z,4.53
2018-08-20T07:03:14.503Z,5.00
2018-08-20T07:05:47.556Z,5.10
2018-08-20T07:08:17.593Z,5.27
2018-08-20T07:10:50.864Z,4.87
2018-08-20T07:13:36.379Z,4.20
2018-08-20T07:16:13.397Z,4.90
2018-08-20T07:18:43.247Z,4.33
2018-08-20T07:21:13.831Z,4.90
2018-08-20T07:23:46.360Z,4.20
2018-08-20T07:26:16.936Z,4.73
2018-08-20T07:28:49.960Z,5.13
2018-08-20T07:31:20.795Z,4.70
2018-08-20T07:33:54.838Z,5.43
2018-08-20T07:36:26.713Z,4.80
2018-08-20T07:38:58.220Z,4.77
2018-08-20T07:41:28.553Z,5.00
2018-08-20T07:44:00.724Z,5.23
2018-08-20T07:46:31.042Z,5.13
2018-08-20T07:49:07.334Z,4.90
2018-08-20T07:51:38.609Z,4.87
2018-08-20T07:54:08.063Z,5.47
2018-08-20T07:56:38.953Z,4.60
2018-08-20T07:59:10.417Z,5.50
2018-08-20T08:01:43.086Z,4.53
2018-08-20T08:04:14.740Z,4.97
2018-08-20T08:06:48.300Z,5.50
2018-08-20T08:09:18.652Z,5.07
2018-08-20T08:11:54.843Z,4.97
2018-08-20T08:14:24.153Z,5.27
2018-08-20T08:16:57.200Z,4.90
2018-08-20T08:19:32.873Z,4.57
2018-08-20T08:22:02.344Z,4.87
2018-08-20T08:24:33.078Z,4.77
2018-08-20T08:27:03.656Z,4.90
2018-08-20T08:29:34.694Z,4.93
2018-08-20T08:32:05.710Z,4.50
2018-08-20T08:34:35.771Z,5.20
2018-08-20T08:37:06.667Z,4.60
2018-08-20T08:39:39.730Z,5.23
2018-08-20T08:42:16.141Z,4.67
2018-08-20T08:44:47.490Z,4.93
2018-08-20T08:47:24.301Z,4.40
2018-08-20T08:50:03.161Z,4.77
2018-08-20T08:52:38.579Z,4.67
2018-08-20T08:55:09.840Z,5.37
2018-08-20T08:57:41.729Z,5.30
2018-08-20T09:00:20.026Z,5.50
2018-08-20T09:02:51.414Z,5.90
2018-08-20T09:05:25.351Z,5.30
2018-08-20T09:07:55.356Z,4.77
2018-08-20T09:10:29.766Z,5.30
2018-08-20T09:12:59.617Z,5.07
2018-08-20T09:15:31.464Z,4.43
2018-08-20T09:18:02.570Z,4.83
2018-08-20T09:20:33.417Z,4.57
2018-08-20T09:23:05.596Z,5.33
2018-08-20T09:25:37.006Z,5.13
2018-08-20T09:28:08.373Z,4.80
2018-08-20T09:30:42.030Z,4.60
2018-08-20T09:33:13.193Z,5.13
2018-08-20T09:35:43.576Z,5.20
2018-08-20T09:38:16.107Z,5.07
2018-08-20T09:40:48.475Z,4.70
2018-08-20T09:43:20.627Z,4.67
2018-08-20T09:45:52.565Z,4.83
2018-08-20T09:48:24.808Z,5.10
2018-08-20T09:50:55.917Z,5.17
2018-08-20T09:53:29.140Z,4.70
2018-08-20T09:55:58.581Z,4.67
2018-08-20T09:58:31.485Z,4.73
2018-08-20T10:01:04.780Z,5.37
2018-08-20T10:03:34.819Z,5.00
2018-08-20T10:08:45.161Z,4.77
2018-08-20T10:11:18.157Z,5.10
2018-08-20T10:13:50.304Z,4.33
2018-08-20T10:16:20.744Z,5.00
2018-08-20T10:18:54.992Z,4.97
2018-08-20T10:21:24.388Z,4.70
2018-08-20T10:23:54.839Z,4.60
2018-08-20T10:26:29.100Z,4.50
2018-08-20T10:28:59.974Z,4.53
2018-08-20T10:31:32.118Z,5.03
2018-08-20T10:34:02.549Z,5.17
2018-08-20T10:36:32.698Z,5.00
2018-08-20T10:39:07.234Z,4.90
2018-08-20T10:41:40.843Z,5.17
2018-08-20T10:44:13.372Z,5.10
2018-08-20T10:46:44.124Z,5.73
2018-08-20T10:49:17.301Z,6.30
2018-08-20T10:51:46.733Z,5.50
2018-08-20T10:54:20.788Z,5.83
2018-08-20T10:56:51.840Z,5.30
2018-08-20T10:59:26.392Z,5.90
2018-08-20T11:01:56.750Z,6.27
2018-08-20T11:04:28.289Z,5.57
2018-08-20T11:06:58.796Z,6.00
2018-08-20T11:09:31.302Z,6.10
2018-08-20T11:12:01.687Z,6.23
2018-08-20T11:14:33.185Z,6.03
2018-08-20T11:17:03.961Z,6.33
2018-08-20T11:19:33.766Z,6.77
2018-08-20T11:22:06.315Z,6.50
2018-08-20T11:24:38.107Z,6.30
2018-08-20T11:27:11.063Z,6.20
2018-08-20T11:29:46.424Z,6.70
2018-08-20T11:32:19.579Z,6.50
2018-08-20T11:34:52.243Z,6.00
2018-08-20T11:37:23.245Z,6.37
2018-08-20T11:39:54.195Z,6.70
2018-08-20T11:42:25.622Z,6.43
2018-08-20T11:44:59.112Z,6.70
2018-08-20T11:47:31.145Z,7.00
2018-08-20T11:50:02.715Z,6.17
2018-08-20T11:52:37.367Z,6.70
2018-08-20T11:55:08.937Z,6.40
2018-08-20T11:57:40.383Z,6.17
2018-08-20T12:00:12.855Z,5.97
2018-08-20T12:02:42.803Z,6.37
2018-08-20T12:05:19.192Z,6.17
2018-08-20T12:07:50.810Z,6.57
2018-08-20T12:10:28.134Z,6.20
2018-08-20T12:12:58.944Z,6.97
2018-08-20T12:15:34.674Z,6.07
2018-08-20T12:18:07.588Z,6.43
2018-08-20T12:20:37.411Z,6.20
2018-08-20T12:23:08.328Z,6.00
2018-08-20T12:25:41.716Z,6.67
2018-08-20T12:28:12.959Z,6.00
2018-08-20T12:30:44.963Z,6.07
2018-08-20T12:33:14.658Z,6.20
2018-08-20T12:35:50.040Z,6.87
2018-08-20T12:38:24.018Z,6.30
2018-08-20T12:40:55.842Z,6.30
2018-08-20T12:43:27.709Z,6.67
2018-08-20T12:45:59.856Z,6.70
2018-08-20T12:48:29.871Z,6.40
2018-08-20T12:51:04.439Z,6.43
2018-08-20T12:53:34.978Z,6.47
2018-08-20T12:56:07.786Z,5.60
2018-08-20T12:58:48.656Z,5.58
2018-08-20T13:01:20.462Z,6.65
2018-08-20T13:03:51.005Z,5.97
2018-08-20T13:06:21.013Z,6.42
2018-08-20T13:08:57.246Z,6.28
2018-08-20T13:11:28.189Z,6.60
2018-08-20T13:14:00.801Z,6.45
2018-08-20T13:16:31.271Z,6.95
2018-08-20T13:19:04.779Z,6.35
2018-08-20T13:21:35.555Z,6.75
2018-08-20T13:24:06.335Z,7.23
2018-08-20T13:26:35.907Z,6.58
2018-08-20T13:29:07.863Z,5.75
2018-08-20T13:31:40.656Z,6.03
2018-08-20T13:34:17.039Z,6.17
2018-08-20T13:36:49.099Z,6.17
2018-08-20T13:39:20.527Z,6.33
2018-08-20T13:41:50.794Z,5.92
2018-08-20T13:44:21.301Z,6.00
2018-08-20T13:46:56.945Z,5.95
2018-08-20T13:49:29.531Z,6.58
2018-08-20T13:51:58.998Z,5.92
2018-08-20T13:54:29.825Z,6.80
2018-08-20T13:57:03.081Z,5.83
2018-08-20T13:59:35.048Z,6.67
2018-08-20T14:02:07.505Z,6.30
2018-08-20T14:04:37.925Z,5.95
2018-08-20T14:07:10.747Z,5.70
2018-08-20T14:09:39.793Z,6.30
2018-08-20T14:12:08.709Z,6.60
2018-08-20T14:14:38.598Z,6.70
2018-08-20T14:17:07.522Z,6.05
2018-08-20T14:19:38.734Z,6.37
2018-08-20T14:22:07.682Z,6.50
2018-08-20T14:24:36.561Z,6.55
2018-08-20T14:27:05.618Z,6.55
2018-08-20T14:29:36.511Z,6.00
2018-08-20T14:32:06.214Z,6.35
2018-08-20T14:34:35.141Z,5.92
2018-08-20T14:37:05.419Z,6.28
2018-08-20T14:39:35.898Z,6.35
2018-08-20T14:42:07.040Z,5.53
2018-08-20T14:44:37.618Z,6.12
2018-08-20T14:47:07.213Z,6.35
2018-08-20T14:49:39.607Z,6.72
2018-08-20T14:52:11.691Z,6.03
2018-08-20T14:54:45.884Z,5.60
2018-08-20T14:57:15.326Z,6.40
2018-08-20T14:59:46.655Z,5.60
2018-08-20T15:02:16.863Z,5.92
2018-08-20T15:04:48.213Z,5.83
2018-08-20T15:07:19.704Z,5.58
2018-08-20T15:09:50.188Z,5.70
2018-08-20T15:12:21.736Z,5.80
2018-08-20T15:14:53.903Z,5.78
2018-08-20T15:17:25.025Z,5.60
2018-08-20T15:19:55.151Z,5.80
2018-08-20T15:22:27.480Z,5.55
2018-08-20T15:24:56.850Z,5.78
2018-08-20T15:27:29.730Z,5.60
2018-08-20T15:30:02.716Z,5.70
2018-08-20T15:32:40.777Z,6.12
2018-08-20T15:35:12.391Z,5.65
2018-08-20T15:37:44.105Z,6.28
2018-08-20T15:40:14.561Z,6.22
2018-08-20T15:42:48.036Z,5.92
2018-08-20T15:45:18.311Z,6.40
2018-08-20T15:47:49.108Z,6.10
2018-08-20T15:50:24.739Z,5.78
2018-08-20T15:52:58.572Z,6.20
2018-08-20T15:55:27.867Z,5.42
2018-08-20T15:57:58.185Z,5.50
2018-08-20T16:00:35.962Z,5.70
2018-08-20T16:03:05.252Z,6.28
2018-08-20T16:05:37.338Z,6.60
2018-08-20T16:08:11.570Z,5.50
2018-08-20T16:10:46.844Z,6.10
2018-08-20T16:13:16.163Z,5.33
2018-08-20T16:15:48.511Z,5.90
2018-08-20T16:18:21.362Z,5.78
2018-08-20T16:20:52.466Z,5.67
2018-08-20T16:23:25.281Z,6.23
2018-08-20T16:25:55.465Z,5.80
2018-08-20T16:28:24.924Z,5.80
2018-08-20T16:30:56.287Z,5.70
2018-08-20T16:33:27.121Z,5.20
2018-08-20T16:35:59.477Z,5.97
2018-08-20T16:38:29.348Z,5.97
2018-08-20T16:41:00.854Z,6.07
2018-08-20T16:43:35.498Z,6.70
2018-08-20T16:46:06.307Z,5.83
2018-08-20T16:48:38.111Z,5.50
2018-08-20T16:51:09.286Z,6.70
2018-08-20T16:53:38.605Z,5.70
2018-08-20T16:56:07.684Z,6.03
2018-08-20T16:58:39.889Z,6.40
2018-08-20T17:01:19.280Z,6.57
2018-08-20T17:03:51.725Z,5.33
2018-08-20T17:06:21.255Z,6.10
2018-08-20T17:08:51.883Z,7.67
2018-08-20T17:11:21.486Z,6.00
2018-08-20T17:13:53.190Z,5.77
2018-08-20T17:16:24.466Z,6.13
2018-08-20T17:18:55.347Z,5.77
2018-08-20T17:21:26.234Z,6.07
2018-08-20T17:23:59.973Z,6.27
2018-08-20T17:26:30.993Z,5.67
2018-08-20T17:29:18.843Z,6.27
2018-08-20T17:31:49.693Z,5.60
2018-08-20T17:34:24.631Z,6.03
2018-08-20T17:36:55.109Z,6.37
2018-08-20T17:39:27.655Z,6.07
2018-08-20T17:41:59.408Z,6.53
2018-08-20T17:44:31.214Z,6.90
2018-08-20T17:47:01.909Z,6.77
2018-08-20T17:49:32.931Z,6.40
2018-08-20T17:52:05.132Z,6.00
2018-08-20T17:54:36.484Z,6.63
2018-08-20T17:57:07.010Z,7.13
2018-08-20T17:59:37.893Z,6.67
2018-08-20T18:02:14.436Z,6.73
2018-08-20T18:04:44.298Z,6.63
2018-08-20T18:07:31.986Z,6.33
2018-08-20T18:10:02.149Z,6.70
2018-08-20T18:12:32.971Z,6.27
2018-08-20T18:15:06.333Z,5.93
2018-08-20T18:17:36.146Z,6.33
2018-08-20T18:20:11.363Z,6.30
2018-08-20T18:22:42.734Z,6.63
2018-08-20T18:25:16.510Z,6.50
2018-08-20T18:27:46.492Z,6.30
2018-08-20T18:30:19.219Z,6.60
2018-08-20T18:32:49.529Z,6.10
2018-08-20T18:35:29.593Z,6.37
2018-08-20T18:37:59.048Z,5.97
2018-08-20T18:40:30.564Z,5.97
2018-08-20T18:43:05.614Z,6.30
2018-08-20T18:45:37.526Z,6.30
2018-08-20T18:48:08.121Z,6.47
2018-08-20T18:50:39.526Z,6.67
2018-08-20T18:53:10.753Z,6.70
2018-08-20T18:55:48.900Z,6.10
2018-08-20T18:58:20.283Z,6.40
2018-08-20T19:00:51.939Z,6.40
2018-08-20T19:03:25.385Z,6.33
2018-08-20T19:05:57.104Z,6.63
2018-08-20T19:08:32.818Z,6.37
2018-08-20T19:11:03.611Z,6.13
2018-08-20T19:13:35.451Z,6.83
2018-08-20T19:19:16.543Z,5.77
2018-08-20T19:21:45.987Z,6.50
2018-08-20T19:24:18.174Z,6.90
2018-08-20T19:26:49.895Z,6.37
2018-08-20T19:29:30.365Z,6.70
2018-08-20T19:32:02.953Z,6.27
2018-08-20T19:34:32.957Z,6.73
2018-08-20T19:37:04.336Z,6.37
2018-08-20T19:39:37.260Z,6.73
2018-08-20T19:42:08.325Z,6.93
2018-08-20T19:44:38.295Z,6.70
2018-08-20T19:47:08.718Z,6.27
2018-08-20T19:49:40.752Z,7.20
2018-08-20T19:52:11.147Z,6.43
2018-08-20T19:54:47.137Z,6.67
2018-08-20T19:57:19.479Z,6.40
2018-08-20T19:59:52.827Z,6.70
2018-08-20T20:02:27.761Z,6.80
2018-08-20T20:05:04.935Z,6.97
2018-08-20T20:07:39.051Z,6.40
2018-08-20T20:10:18.547Z,6.97
2018-08-20T20:12:56.144Z,7.07
2018-08-20T20:15:27.359Z,6.63
2018-08-20T20:17:59.828Z,6.80
2018-08-20T20:20:36.590Z,7.73
2018-08-20T20:23:12.309Z,6.80
2018-08-20T20:25:44.916Z,7.37
2018-08-20T20:28:17.387Z,7.17
2018-08-20T20:30:47.992Z,6.83
2018-08-20T20:33:25.659Z,7.10
2018-08-20T20:35:56.523Z,6.77
2018-08-20T20:38:27.344Z,6.97
2018-08-20T20:41:00.720Z,7.23
2018-08-20T20:43:42.184Z,7.17
2018-08-20T20:46:18.123Z,7.30
2018-08-20T20:48:49.127Z,7.37
2018-08-20T20:51:22.719Z,7.93
2018-08-20T20:53:54.306Z,7.27
2018-08-20T20:56:26.894Z,7.00
2018-08-20T20:58:58.565Z,7.47
2018-08-20T21:01:30.544Z,7.00
2018-08-20T21:04:08.580Z,6.97
2018-08-20T21:06:44.157Z,6.57
2018-08-20T21:09:17.671Z,8.13
2018-08-20T21:11:49.581Z,6.77
2018-08-20T21:14:21.492Z,7.40
2018-08-20T21:16:57.580Z,7.47
2018-08-20T21:19:29.632Z,6.77
2018-08-20T21:22:05.817Z,7.60
2018-08-20T21:24:36.321Z,6.93
2018-08-20T21:27:40.052Z,7.33
2018-08-20T21:30:12.448Z,7.13
2018-08-20T21:32:41.824Z,6.73
2018-08-20T21:35:19.543Z,6.93
2018-08-20T21:37:49.441Z,6.37
2018-08-20T21:40:23.570Z,6.37
2018-08-20T21:42:55.081Z,7.23
2018-08-20T21:45:25.550Z,7.00
2018-08-20T21:47:56.588Z,7.17
2018-08-20T21:50:28.316Z,7.37
2018-08-20T21:52:58.477Z,7.30
2018-08-20T21:55:29.590Z,7.03
2018-08-20T21:58:01.753Z,7.70
2018-08-20T22:00:33.770Z,6.80
2018-08-20T22:03:06.214Z,6.87
2018-08-20T22:05:37.469Z,7.43
2018-08-20T22:08:06.732Z,7.10
2018-08-20T22:10:38.485Z,7.03
2018-08-20T22:13:11.520Z,7.30
2018-08-20T22:15:46.779Z,7.40
2018-08-20T22:18:19.206Z,7.33
2018-08-20T22:20:48.905Z,7.47
2018-08-20T22:23:25.374Z,7.80
2018-08-20T22:25:55.546Z,7.23
2018-08-20T22:28:25.411Z,7.83
2018-08-20T22:30:57.744Z,6.70
2018-08-20T22:33:29.634Z,7.87
2018-08-20T22:36:01.817Z,7.10
2018-08-20T22:38:46.066Z,7.83
2018-08-20T22:41:16.918Z,7.07
2018-08-20T22:43:48.975Z,6.90
2018-08-20T22:46:18.883Z,7.03
2018-08-20T22:48:53.654Z,7.23
2018-08-20T22:51:23.986Z,7.67
2018-08-20T22:53:58.983Z,7.10
2018-08-20T22:56:31.212Z,7.30
2018-08-20T22:59:01.939Z,6.77
2018-08-20T23:01:32.720Z,6.93
2018-08-20T23:04:02.338Z,7.87
2018-08-20T23:06:32.074Z,6.97
2018-08-20T23:09:11.373Z,7.27
2018-08-20T23:11:42.572Z,7.07
2018-08-20T23:14:12.641Z,6.73
2018-08-20T23:16:41.854Z,7.20
2018-08-20T23:19:11.121Z,7.30
2018-08-20T23:21:44.108Z,7.20
2018-08-20T23:24:14.376Z,6.87
2018-08-20T23:26:45.217Z,6.93
2018-08-20T23:29:15.224Z,7.10
2018-08-20T23:31:45.016Z,7.03
2018-08-20T23:34:16.883Z,7.07
2018-08-20T23:36:46.132Z,7.57
2018-08-20T23:39:16.839Z,7.80
2018-08-20T23:41:45.859Z,7.50
2018-08-20T23:44:16.950Z,7.47
2018-08-20T23:46:50.582Z,7.70
2018-08-20T23:49:19.557Z,7.50
2018-08-20T23:51:49.322Z,8.27
2018-08-20T23:54:18.226Z,7.87
2018-08-20T23:56:47.183Z,7.97
2018-08-20T23:59:16.092Z,8.03
